createdAt,value
2023-09-23T00:00:59.927Z,0.80
2023-09-23T00:03:27.420Z,1.10
2023-09-23T00:05:54.369Z,0.70
2023-09-23T00:08:21.203Z,1.23
2023-09-23T00:10:51.511Z,1.25
2023-09-23T00:13:21.676Z,1.20
2023-09-23T00:15:50.965Z,1.33
2023-09-23T00:18:18.776Z,1.00
2023-09-23T00:20:48.217Z,1.10
2023-09-23T00:23:15.406Z,1.00
2023-09-23T00:25:43.012Z,1.00
2023-09-23T00:28:12.217Z,0.93
2023-09-23T00:30:39.582Z,1.10
2023-09-23T00:33:07.553Z,0.80
2023-09-23T00:35:37.656Z,1.17
2023-09-23T00:38:05.825Z,1.13
2023-09-23T00:40:36.222Z,0.98
2023-09-23T00:43:16.415Z,1.05
2023-09-23T00:45:48.963Z,1.30
2023-09-23T00:48:19.135Z,1.08
2023-09-23T00:50:47.694Z,1.10
2023-09-23T00:53:15.671Z,1.20
2023-09-23T00:55:53.061Z,1.60
2023-09-23T00:58:22.577Z,1.17
2023-09-23T01:00:50.440Z,1.75
2023-09-23T01:03:17.720Z,1.65
2023-09-23T01:05:45.324Z,2.00
2023-09-23T01:08:32.787Z,1.92
2023-09-23T01:11:00.988Z,1.95
2023-09-23T01:13:31.066Z,1.42
2023-09-23T01:15:58.518Z,1.60
2023-09-23T01:18:28.326Z,1.20
2023-09-23T01:20:59.706Z,1.65
2023-09-23T01:23:27.096Z,1.73
2023-09-23T01:28:20.864Z,1.17
2023-09-23T01:30:47.749Z,1.20
2023-09-23T01:33:17.697Z,1.08
2023-09-23T01:35:46.915Z,1.17
2023-09-23T01:38:16.786Z,1.00
2023-09-23T01:40:44.760Z,0.90
2023-09-23T01:43:12.675Z,0.90
2023-09-23T01:45:41.053Z,1.23
2023-09-23T01:48:09.207Z,1.50
2023-09-23T01:50:36.241Z,1.10
2023-09-23T01:53:03.427Z,0.88
2023-09-23T01:55:31.759Z,0.80
2023-09-23T01:57:58.668Z,0.90
2023-09-23T02:00:27.470Z,0.98
2023-09-23T02:02:58.119Z,0.80
2023-09-23T02:05:29.409Z,0.75
2023-09-23T02:07:56.715Z,0.98
2023-09-23T02:12:53.528Z,0.80
2023-09-23T02:15:20.419Z,0.73
2023-09-23T02:17:48.694Z,0.95
2023-09-23T02:20:20.974Z,0.90
2023-09-23T02:22:56.666Z,1.08
2023-09-23T02:25:27.359Z,0.98
2023-09-23T02:27:56.815Z,1.00
2023-09-23T02:30:24.570Z,1.00
2023-09-23T02:35:18.642Z,0.95
2023-09-23T02:37:47.238Z,1.00
2023-09-23T02:40:16.490Z,1.23
2023-09-23T02:42:45.133Z,1.48
2023-09-23T02:45:15.060Z,1.30
2023-09-23T02:47:44.908Z,1.88
2023-09-23T02:50:18.084Z,1.77
2023-09-23T02:52:49.674Z,1.30
2023-09-23T02:55:20.279Z,1.63
2023-09-23T02:57:51.211Z,1.38
2023-09-23T03:00:20.752Z,1.55
2023-09-23T03:02:56.422Z,1.90
2023-09-23T03:05:32.650Z,1.60
2023-09-23T03:08:00.948Z,1.40
2023-09-23T03:10:35.144Z,1.75
2023-09-23T03:13:08.793Z,0.98
2023-09-23T03:15:59.871Z,1.02
2023-09-23T03:18:34.501Z,1.67
2023-09-23T03:21:11.117Z,1.52
2023-09-23T03:23:40.698Z,0.95
2023-09-23T03:26:09.637Z,1.45
2023-09-23T03:28:42.051Z,1.30
2023-09-23T03:31:09.781Z,1.58
2023-09-23T03:33:39.186Z,1.10
2023-09-23T03:36:14.645Z,1.17
2023-09-23T03:38:41.985Z,0.90
2023-09-23T03:41:09.561Z,1.50
2023-09-23T03:43:36.471Z,1.80
2023-09-23T03:46:03.577Z,1.55
2023-09-23T03:48:30.443Z,1.42
2023-09-23T03:50:57.642Z,1.65
2023-09-23T03:53:24.909Z,1.40
2023-09-23T03:58:23.606Z,1.05
2023-09-23T04:00:50.796Z,1.10
2023-09-23T04:03:18.929Z,1.70
2023-09-23T04:05:58.614Z,1.30
2023-09-23T04:08:25.701Z,1.30
2023-09-23T04:10:52.671Z,1.40
2023-09-23T04:13:20.094Z,1.73
2023-09-23T04:18:13.774Z,1.13
2023-09-23T04:20:44.813Z,1.58
2023-09-23T04:23:11.774Z,1.20
2023-09-23T04:25:38.627Z,1.40
2023-09-23T04:28:05.940Z,1.20
2023-09-23T04:30:32.806Z,1.15
2023-09-23T04:33:01.923Z,1.38
2023-09-23T04:35:30.524Z,1.05
2023-09-23T04:37:57.415Z,1.15
2023-09-23T04:40:24.283Z,1.23
2023-09-23T04:42:51.170Z,1.00
2023-09-23T04:45:21.451Z,1.05
2023-09-23T04:47:51.669Z,1.55
2023-09-23T04:50:18.966Z,1.02
2023-09-23T04:52:47.745Z,1.38
2023-09-23T04:55:14.715Z,1.02
2023-09-23T04:57:41.578Z,1.13
2023-09-23T05:00:10.766Z,0.93
2023-09-23T05:02:41.538Z,0.80
2023-09-23T05:05:11.077Z,1.00
2023-09-23T05:07:38.758Z,1.02
2023-09-23T05:12:33.789Z,0.95
2023-09-23T05:15:01.890Z,0.90
2023-09-23T05:17:29.614Z,0.93
2023-09-23T05:19:56.666Z,1.02
2023-09-23T05:22:24.371Z,1.20
2023-09-23T05:24:57.855Z,1.10
2023-09-23T05:27:25.711Z,1.40
2023-09-23T05:29:53.062Z,1.25
2023-09-23T05:32:21.497Z,1.10
2023-09-23T05:34:52.317Z,1.25
2023-09-23T05:37:19.332Z,1.10
2023-09-23T05:39:47.182Z,0.95
2023-09-23T05:42:15.010Z,0.98
2023-09-23T05:44:42.286Z,1.00
2023-09-23T05:47:10.231Z,1.20
2023-09-23T05:49:37.760Z,1.30
2023-09-23T05:52:05.303Z,1.10
2023-09-23T05:54:33.167Z,1.50
2023-09-23T05:57:00.018Z,1.23
2023-09-23T05:59:27.092Z,1.50
2023-09-23T06:01:54.096Z,1.23
2023-09-23T06:04:21.023Z,1.30
2023-09-23T06:06:47.870Z,1.17
2023-09-23T06:09:16.243Z,1.65
2023-09-23T06:11:44.246Z,1.02
2023-09-23T06:14:12.862Z,1.35
2023-09-23T06:16:40.108Z,1.40
2023-09-23T06:19:08.313Z,1.58
2023-09-23T06:21:36.647Z,1.02
2023-09-23T06:24:03.831Z,1.60
2023-09-23T06:26:30.791Z,1.33
2023-09-23T06:28:57.912Z,1.40
2023-09-23T06:31:24.952Z,1.88
2023-09-23T06:33:51.805Z,1.25
2023-09-23T06:36:18.637Z,1.70
2023-09-23T06:38:45.487Z,1.00
2023-09-23T06:41:12.370Z,1.17
2023-09-23T06:43:39.276Z,1.20
2023-09-23T06:46:06.162Z,1.27
2023-09-23T06:48:33.116Z,1.35
2023-09-23T06:51:04.532Z,1.42
2023-09-23T06:53:32.165Z,1.48
2023-09-23T06:55:59.133Z,1.50
2023-09-23T06:58:26.107Z,1.30
2023-09-23T07:00:53.000Z,1.20
2023-09-23T07:03:19.963Z,1.05
2023-09-23T07:05:49.252Z,1.15
2023-09-23T07:08:16.455Z,1.15
2023-09-23T07:10:43.468Z,1.20
2023-09-23T07:13:13.165Z,1.20
2023-09-23T07:15:41.824Z,1.20
2023-09-23T07:18:09.541Z,1.00
2023-09-23T07:20:36.688Z,1.38
2023-09-23T07:23:03.884Z,1.08
2023-09-23T07:25:37.479Z,1.38
2023-09-23T07:28:04.889Z,1.40
2023-09-23T07:33:00.787Z,0.88
2023-09-23T07:35:34.634Z,1.45
2023-09-23T07:38:02.572Z,1.23
2023-09-23T07:40:31.320Z,1.30
2023-09-23T07:42:58.952Z,1.15
2023-09-23T07:45:26.023Z,0.95
2023-09-23T07:47:52.928Z,1.30
2023-09-23T07:50:19.867Z,1.38
2023-09-23T07:52:46.799Z,1.45
2023-09-23T07:55:14.781Z,1.30
2023-09-23T07:57:41.740Z,1.05
2023-09-23T08:00:09.622Z,1.20
2023-09-23T08:02:39.699Z,1.05
2023-09-23T08:05:07.113Z,1.00
2023-09-23T08:07:34.293Z,1.17
2023-09-23T08:10:03.162Z,1.02
2023-09-23T08:12:30.051Z,1.23
2023-09-23T08:14:57.133Z,1.30
2023-09-23T08:17:24.210Z,0.90
2023-09-23T08:19:52.630Z,1.10
2023-09-23T08:22:19.806Z,1.30
2023-09-23T08:24:46.647Z,1.23
2023-09-23T08:27:13.788Z,0.88
2023-09-23T08:29:40.643Z,0.88
2023-09-23T08:32:07.886Z,1.10
2023-09-23T08:37:01.879Z,1.23
2023-09-23T08:39:28.892Z,1.08
2023-09-23T08:41:57.955Z,1.00
2023-09-23T08:44:26.512Z,1.08
2023-09-23T08:46:54.046Z,0.90
2023-09-23T08:49:25.217Z,1.30
2023-09-23T08:51:56.286Z,0.98
2023-09-23T08:54:26.424Z,1.00
2023-09-23T08:56:55.421Z,1.20
2023-09-23T08:59:22.425Z,0.90
2023-09-23T09:01:49.299Z,1.20
2023-09-23T09:04:16.664Z,0.98
2023-09-23T09:09:13.897Z,1.23
2023-09-23T09:11:40.795Z,1.27
2023-09-23T09:14:08.352Z,1.25
2023-09-23T09:16:35.247Z,1.33
2023-09-23T09:19:02.096Z,1.23
2023-09-23T09:21:29.405Z,1.33
2023-09-23T09:26:23.187Z,1.20
2023-09-23T09:28:50.051Z,0.90
2023-09-23T09:31:18.923Z,1.13
2023-09-23T09:33:49.934Z,0.88
2023-09-23T09:36:24.563Z,1.30
2023-09-23T09:38:52.870Z,1.00
2023-09-23T09:41:25.895Z,1.02
2023-09-23T09:43:53.217Z,0.90
2023-09-23T09:48:49.954Z,0.93
2023-09-23T09:51:17.366Z,0.90
2023-09-23T09:53:46.888Z,1.05
2023-09-23T09:56:15.770Z,0.70
2023-09-23T09:58:42.879Z,0.65
2023-09-23T10:01:14.143Z,0.80
2023-09-23T10:03:45.499Z,0.80
2023-09-23T10:06:22.568Z,0.90
2023-09-23T10:08:50.613Z,0.55
2023-09-23T10:11:18.001Z,0.47
2023-09-23T10:13:45.407Z,0.55
2023-09-23T10:16:14.292Z,0.57
2023-09-23T10:18:42.397Z,0.60
2023-09-23T10:21:22.777Z,0.68
2023-09-23T10:23:52.152Z,0.70
2023-09-23T10:26:20.585Z,0.50
2023-09-23T10:29:00.707Z,0.60
2023-09-23T10:31:29.049Z,0.60
2023-09-23T10:33:56.969Z,0.55
2023-09-23T10:36:24.742Z,0.60
2023-09-23T10:38:51.832Z,0.70
2023-09-23T10:41:19.224Z,0.70
2023-09-23T10:43:55.078Z,0.70
2023-09-23T10:46:22.333Z,0.63
2023-09-23T10:48:49.312Z,0.70
2023-09-23T10:51:16.839Z,0.52
2023-09-23T10:53:43.690Z,0.75
2023-09-23T10:56:11.892Z,0.50
2023-09-23T10:58:39.847Z,0.68
2023-09-23T11:01:07.945Z,0.60
2023-09-23T11:03:42.110Z,0.70
2023-09-23T11:06:09.677Z,0.63
2023-09-23T11:08:38.072Z,0.60
2023-09-23T11:11:05.094Z,0.50
2023-09-23T11:13:34.667Z,0.50
2023-09-23T11:16:09.974Z,0.40
2023-09-23T11:18:38.253Z,0.57
2023-09-23T11:21:06.046Z,0.50
2023-09-23T11:23:34.200Z,0.50
2023-09-23T11:26:01.435Z,0.50
2023-09-23T11:28:28.800Z,0.47
2023-09-23T11:33:23.410Z,0.40
2023-09-23T11:35:50.392Z,0.63
2023-09-23T11:38:18.274Z,0.60
2023-09-23T11:40:47.638Z,0.60
2023-09-23T11:43:14.502Z,0.50
2023-09-23T11:45:42.341Z,0.70
2023-09-23T11:48:10.570Z,0.60
2023-09-23T11:50:38.282Z,0.50
2023-09-23T11:53:05.778Z,0.40
2023-09-23T11:55:34.079Z,0.40
2023-09-23T11:58:01.831Z,0.57
2023-09-23T12:00:29.708Z,0.60
2023-09-23T12:02:57.606Z,0.40
2023-09-23T12:05:30.370Z,0.52
2023-09-23T12:07:59.959Z,0.50
2023-09-23T12:10:28.854Z,0.50
2023-09-23T12:13:03.257Z,0.50
2023-09-23T12:15:31.303Z,0.50
2023-09-23T12:17:58.396Z,0.55
2023-09-23T12:22:54.153Z,0.50
2023-09-23T12:25:21.509Z,0.55
2023-09-23T12:27:48.771Z,0.60
2023-09-23T12:32:46.532Z,0.40
2023-09-23T12:35:13.714Z,0.60
2023-09-23T12:40:08.243Z,0.40
2023-09-23T12:42:35.144Z,0.55
2023-09-23T12:45:05.634Z,0.50
2023-09-23T12:47:49.025Z,0.50
2023-09-23T12:55:14.390Z,0.47
2023-09-23T12:57:41.321Z,0.40
2023-09-23T13:00:08.986Z,0.63
2023-09-23T13:02:36.012Z,0.50
2023-09-23T13:05:03.772Z,0.50
2023-09-23T13:07:30.692Z,0.40
2023-09-23T13:09:57.563Z,0.47
2023-09-23T13:12:24.522Z,0.50
2023-09-23T13:14:51.439Z,0.38
2023-09-23T13:17:18.504Z,0.57
2023-09-23T13:19:45.732Z,0.63
2023-09-23T13:22:12.740Z,0.43
2023-09-23T13:24:39.601Z,0.40
2023-09-23T13:27:07.008Z,0.50
2023-09-23T13:29:33.897Z,0.30
2023-09-23T13:32:00.993Z,0.40
2023-09-23T13:34:27.977Z,0.55
2023-09-23T13:36:55.061Z,0.40
2023-09-23T13:39:21.907Z,0.50
2023-09-23T13:41:48.784Z,0.50
2023-09-23T13:44:15.729Z,0.68
2023-09-23T13:46:42.747Z,0.40
2023-09-23T13:49:09.632Z,0.50
2023-09-23T13:51:36.553Z,0.40
2023-09-23T13:54:03.905Z,0.40
2023-09-23T13:56:30.946Z,0.40
2023-09-23T13:58:57.896Z,0.52
2023-09-23T14:01:24.928Z,0.43
2023-09-23T14:03:52.555Z,0.50
2023-09-23T14:06:19.462Z,0.50
2023-09-23T14:08:46.639Z,0.55
2023-09-23T14:11:14.297Z,0.55
2023-09-23T14:13:41.564Z,0.40
2023-09-23T14:18:36.294Z,0.70
2023-09-23T14:21:03.555Z,0.90
2023-09-23T14:25:57.598Z,0.40
2023-09-23T14:28:24.503Z,0.60
2023-09-23T14:30:51.627Z,0.70
2023-09-23T14:33:18.567Z,0.70
2023-09-23T14:35:45.606Z,0.50
2023-09-23T14:38:12.552Z,0.60
2023-09-23T14:40:39.445Z,0.73
2023-09-23T14:43:06.446Z,0.60
2023-09-23T14:45:33.348Z,0.60
2023-09-23T14:48:00.966Z,0.60
2023-09-23T14:50:27.944Z,0.50
2023-09-23T14:52:54.842Z,0.60
2023-09-23T14:55:23.113Z,0.47
2023-09-23T14:57:50.021Z,0.60
2023-09-23T15:00:17.557Z,0.50
2023-09-23T15:02:44.809Z,0.68
2023-09-23T15:07:39.480Z,0.65
2023-09-23T15:12:36.861Z,0.80
2023-09-23T15:15:04.593Z,0.80
2023-09-23T15:17:31.600Z,0.60
2023-09-23T15:19:58.529Z,0.73
2023-09-23T15:22:25.463Z,0.55
2023-09-23T15:24:52.776Z,0.77
2023-09-23T15:29:48.492Z,0.52
2023-09-23T15:32:15.565Z,0.60
2023-09-23T15:34:42.898Z,0.47
2023-09-23T15:37:09.794Z,0.50
2023-09-23T15:39:36.766Z,0.70
2023-09-23T15:42:04.146Z,0.60
2023-09-23T15:44:31.075Z,0.73
2023-09-23T15:46:58.671Z,0.93
2023-09-23T15:49:27.869Z,0.45
2023-09-23T15:51:54.751Z,0.60
2023-09-23T15:54:21.611Z,0.68
2023-09-23T15:56:49.105Z,0.77
2023-09-23T15:59:16.234Z,0.57
2023-09-23T16:01:43.131Z,0.70
2023-09-23T16:04:10.071Z,0.55
2023-09-23T16:06:37.416Z,0.70
2023-09-23T16:09:05.423Z,0.77
2023-09-23T16:11:32.324Z,0.88
2023-09-23T16:13:59.327Z,0.90
2023-09-23T16:16:26.468Z,0.73
2023-09-23T16:18:53.414Z,0.68
2023-09-23T16:21:20.351Z,0.60
2023-09-23T16:23:47.439Z,1.00
2023-09-23T16:26:14.352Z,0.75
2023-09-23T16:28:41.228Z,0.95
2023-09-23T16:31:08.103Z,0.68
2023-09-23T16:33:34.981Z,0.73
2023-09-23T16:36:01.810Z,0.73
2023-09-23T16:38:28.702Z,0.90
2023-09-23T16:40:55.608Z,0.70
2023-09-23T16:43:22.755Z,0.50
2023-09-23T16:45:50.933Z,0.75
2023-09-23T16:48:18.089Z,0.50
2023-09-23T16:50:47.869Z,0.70
2023-09-23T16:53:14.798Z,0.60
2023-09-23T16:55:41.771Z,0.65
2023-09-23T16:58:08.782Z,1.00
2023-09-23T17:00:35.805Z,0.70
2023-09-23T17:03:02.891Z,0.82
2023-09-23T17:07:58.658Z,0.60
2023-09-23T17:10:25.818Z,0.85
2023-09-23T17:12:52.707Z,0.60
2023-09-23T17:15:22.539Z,0.85
2023-09-23T17:17:49.471Z,0.60
2023-09-23T17:20:16.709Z,0.80
2023-09-23T17:22:44.130Z,0.52
2023-09-23T17:27:37.792Z,0.75
2023-09-23T17:30:06.981Z,0.70
2023-09-23T17:32:34.773Z,0.50
2023-09-23T17:35:01.917Z,0.88
2023-09-23T17:37:28.930Z,0.65
2023-09-23T17:39:56.433Z,0.70
2023-09-23T17:42:23.494Z,0.63
2023-09-23T17:44:51.456Z,0.80
2023-09-23T17:47:18.601Z,1.20
2023-09-23T17:49:45.535Z,1.00
2023-09-23T17:52:12.496Z,1.50
2023-09-23T17:54:39.367Z,0.70
2023-09-23T17:57:06.190Z,0.63
2023-09-23T17:59:33.163Z,0.50
2023-09-23T18:02:00.195Z,0.80
2023-09-23T18:04:27.155Z,0.60
2023-09-23T18:06:54.254Z,0.70
2023-09-23T18:09:21.124Z,0.80
2023-09-23T18:11:48.287Z,0.82
2023-09-23T18:14:15.399Z,0.70
2023-09-23T18:16:42.249Z,0.70
2023-09-23T18:19:09.131Z,0.60
2023-09-23T18:21:35.963Z,0.80
2023-09-23T18:24:03.735Z,0.88
2023-09-23T18:26:30.701Z,0.65
2023-09-23T18:28:57.553Z,0.80
2023-09-23T18:31:24.726Z,0.80
2023-09-23T18:33:51.827Z,0.73
2023-09-23T18:36:18.878Z,0.60
2023-09-23T18:38:46.703Z,0.60
2023-09-23T18:41:13.934Z,0.70
2023-09-23T18:43:40.830Z,0.80
2023-09-23T18:46:07.770Z,0.88
2023-09-23T18:48:34.741Z,0.80
2023-09-23T18:53:29.403Z,0.60
2023-09-23T18:56:00.424Z,0.70
2023-09-23T18:58:27.832Z,0.90
2023-09-23T19:03:21.652Z,0.93
2023-09-23T19:05:49.682Z,0.70
2023-09-23T19:08:16.591Z,0.80
2023-09-23T19:10:43.561Z,0.65
2023-09-23T19:13:10.413Z,0.80
2023-09-23T19:15:37.255Z,0.98
2023-09-23T19:18:04.332Z,0.70
2023-09-23T19:20:31.451Z,0.60
2023-09-23T19:22:58.446Z,0.70
2023-09-23T19:25:25.296Z,0.70
2023-09-23T19:27:52.240Z,0.75
2023-09-23T19:30:19.315Z,0.98
2023-09-23T19:32:46.893Z,0.90
2023-09-23T19:35:14.024Z,0.80
2023-09-23T19:37:40.922Z,0.88
2023-09-23T19:40:08.596Z,0.73
2023-09-23T19:42:36.570Z,0.63
2023-09-23T19:45:05.194Z,1.08
2023-09-23T19:47:33.081Z,0.68
2023-09-23T19:50:01.034Z,1.00
2023-09-23T19:52:34.253Z,0.80
2023-09-23T19:55:01.533Z,0.90
2023-09-23T19:57:28.413Z,0.93
2023-09-23T19:59:56.390Z,0.85
2023-09-23T20:02:23.675Z,0.90
2023-09-23T20:04:50.573Z,0.80
2023-09-23T20:07:17.624Z,0.65
2023-09-23T20:09:44.501Z,0.90
2023-09-23T20:12:12.095Z,0.80
2023-09-23T20:14:39.279Z,0.80
2023-09-23T20:17:07.913Z,1.10
2023-09-23T20:19:35.176Z,0.88
2023-09-23T20:22:03.285Z,1.00
2023-09-23T20:24:30.457Z,1.10
2023-09-23T20:26:57.461Z,0.88
2023-09-23T20:29:24.477Z,1.00
2023-09-23T20:31:51.506Z,0.73
2023-09-23T20:34:18.816Z,0.90
2023-09-23T20:39:13.177Z,0.80
2023-09-23T20:41:40.427Z,0.90
2023-09-23T20:44:07.654Z,0.90
2023-09-23T20:46:34.761Z,0.90
2023-09-23T20:49:02.115Z,0.70
2023-09-23T20:53:57.031Z,0.95
2023-09-23T20:58:50.861Z,1.10
2023-09-23T21:01:17.818Z,0.80
2023-09-23T21:03:44.951Z,1.08
2023-09-23T21:08:38.959Z,0.90
2023-09-23T21:11:05.912Z,1.08
2023-09-23T21:13:32.909Z,0.93
2023-09-23T21:16:06.414Z,0.98
2023-09-23T21:18:33.392Z,0.90
2023-09-23T21:21:00.233Z,0.90
2023-09-23T21:23:27.322Z,1.08
2023-09-23T21:25:54.339Z,0.70
2023-09-23T21:28:21.465Z,0.95
2023-09-23T21:30:48.408Z,0.90
2023-09-23T21:33:15.737Z,0.77
2023-09-23T21:38:09.790Z,0.93
2023-09-23T21:40:40.946Z,0.63
2023-09-23T21:43:08.994Z,0.88
2023-09-23T21:45:39.264Z,1.00
2023-09-23T21:48:08.264Z,0.90
2023-09-23T21:50:35.457Z,1.10
2023-09-23T21:53:03.197Z,0.82
2023-09-23T21:55:30.109Z,0.90
2023-09-23T21:57:57.037Z,1.13
2023-09-23T22:00:27.767Z,0.90
2023-09-23T22:02:57.671Z,0.77
2023-09-23T22:05:26.084Z,0.82
2023-09-23T22:08:01.209Z,0.98
2023-09-23T22:10:28.539Z,0.90
2023-09-23T22:12:57.165Z,0.80
2023-09-23T22:15:26.694Z,0.85
2023-09-23T22:17:55.078Z,0.90
2023-09-23T22:20:25.581Z,1.17
2023-09-23T22:22:52.948Z,1.20
2023-09-23T22:25:21.789Z,1.20
2023-09-23T22:27:51.711Z,0.80
2023-09-23T22:30:22.677Z,1.08
2023-09-23T22:32:50.153Z,1.20
2023-09-23T22:35:18.663Z,1.10
2023-09-23T22:37:45.741Z,1.02
2023-09-23T22:40:14.498Z,1.00
2023-09-23T23:14:41.049Z,0.95
2023-09-23T23:17:10.643Z,1.17
2023-09-23T23:19:37.491Z,1.42
2023-09-23T23:22:04.478Z,1.30
2023-09-23T23:24:31.333Z,1.10
2023-09-23T23:26:59.670Z,1.05
2023-09-23T23:29:26.865Z,1.15
2023-09-23T23:31:53.718Z,0.90
2023-09-23T23:34:20.575Z,1.00
2023-09-23T23:36:47.441Z,1.45
2023-09-23T23:39:14.264Z,1.05
2023-09-23T23:41:41.123Z,1.15
2023-09-23T23:44:09.160Z,1.00
2023-09-23T23:46:37.953Z,1.10
2023-09-23T23:49:06.929Z,1.50
2023-09-23T23:51:34.944Z,1.35
2023-09-23T23:54:03.713Z,1.02
2023-09-23T23:56:33.989Z,1.10
2023-09-23T23:59:01.405Z,1.30
